Time;durP1;ratioP1;P1;durP2;ratioP2;P2;SDS_P1;SDS_P2;PMS_P1;PMS_P2;Temp;Humidity;BMP_temperature;BMP_pressure;BME280_temperature;BME280_humidity;BME280_pressure;Samples;Min_cycle;Max_cycle;Signal;HPM_P1;HPM_P2
2023/11/25 00:00:50;;;;;;;4.55;1.30;;;5.20;99.90;;;;;;5059601;28;20115;-89
2023/11/25 00:03:16;;;;;;;5.28;1.20;;;5.30;99.90;;;;;;5059281;28;20031;-88
2023/11/25 00:05:42;;;;;;;5.65;1.27;;;5.20;99.90;;;;;;5026366;28;20112;-89
2023/11/25 00:08:08;;;;;;;5.90;1.60;;;5.20;99.90;;;;;;5076902;28;20475;-88
2023/11/25 00:10:34;;;;;;;8.63;1.70;;;5.20;99.90;;;;;;5058134;28;20025;-88
2023/11/25 00:13:01;;;;;;;7.82;1.60;;;5.20;99.90;;;;;;5059324;28;20017;-90
2023/11/25 00:15:27;;;;;;;7.30;1.63;;;5.20;99.90;;;;;;5077232;28;20139;-90
2023/11/25 00:17:53;;;;;;;7.38;1.50;;;5.10;99.90;;;;;;5059305;28;20083;-89
2023/11/25 00:20:23;;;;;;;7.07;1.60;;;5.10;99.90;;;;;;5042383;28;20120;-87
2023/11/25 00:22:49;;;;;;;4.43;2.00;;;5.10;99.90;;;;;;5059217;28;20538;-90
2023/11/25 00:25:15;;;;;;;8.63;2.38;;;5.20;99.90;;;;;;5057844;28;20138;-88
2023/11/25 00:27:50;;;;;;;9.55;1.70;;;5.10;99.90;;;;;;5059294;28;20112;-89
2023/11/25 00:30:16;;;;;;;7.53;1.65;;;5.10;99.90;;;;;;5042424;28;20063;-89
2023/11/25 00:32:41;;;;;;;7.22;1.90;;;5.10;99.90;;;;;;5042332;28;20415;-89
2023/11/25 00:35:08;;;;;;;4.65;1.33;;;5.20;99.90;;;;;;5042262;28;20116;-89
2023/11/25 00:37:35;;;;;;;6.82;1.77;;;5.20;99.90;;;;;;5042432;28;20103;-89
2023/11/25 00:40:04;;;;;;;8.55;1.95;;;5.20;99.90;;;;;;5058608;28;20021;-89
2023/11/25 00:42:30;;;;;;;8.82;2.15;;;5.20;99.90;;;;;;5042695;28;20541;-89
2023/11/25 00:44:56;;;;;;;8.60;2.17;;;5.20;99.90;;;;;;5042452;28;20028;-90
2023/11/25 00:47:23;;;;;;;8.68;2.38;;;5.20;99.90;;;;;;5058787;28;20100;-88
2023/11/25 00:49:49;;;;;;;12.60;2.63;;;5.20;99.90;;;;;;5077877;28;20060;-90
2023/11/25 00:52:15;;;;;;;9.45;2.00;;;5.20;99.90;;;;;;5047882;28;20044;-89
2023/11/25 00:54:41;;;;;;;6.90;2.05;;;5.20;99.90;;;;;;5099577;28;20019;-89
2023/11/25 00:57:07;;;;;;;8.40;2.17;;;5.20;99.90;;;;;;5065640;28;20036;-87
2023/11/25 00:59:32;;;;;;;11.57;2.00;;;5.20;99.90;;;;;;5084102;28;20103;-88
2023/11/25 01:01:58;;;;;;;8.70;2.28;;;5.20;99.90;;;;;;5059229;28;20024;-89
2023/11/25 01:04:24;;;;;;;10.23;2.65;;;5.20;99.90;;;;;;5042148;28;20029;-89
2023/11/25 01:06:49;;;;;;;7.88;2.00;;;5.20;99.90;;;;;;5058284;28;20035;-90
2023/11/25 01:09:16;;;;;;;8.48;2.25;;;5.20;99.90;;;;;;5058702;28;20067;-89
2023/11/25 01:11:42;;;;;;;7.10;2.30;;;5.20;99.90;;;;;;5058274;28;20031;-88
2023/11/25 01:14:08;;;;;;;11.55;2.20;;;5.20;99.90;;;;;;5041744;28;20487;-89
2023/11/25 01:16:35;;;;;;;10.02;2.20;;;5.30;99.90;;;;;;5041304;28;20059;-88
2023/11/25 01:19:01;;;;;;;10.73;2.45;;;5.30;99.90;;;;;;5075606;28;20039;-88
2023/11/25 01:21:26;;;;;;;8.90;2.42;;;5.30;99.90;;;;;;5057947;28;20106;-89
2023/11/25 01:23:52;;;;;;;13.27;2.80;;;5.30;99.90;;;;;;5058406;28;20039;-89
2023/11/25 01:26:17;;;;;;;10.18;2.08;;;5.30;99.90;;;;;;5058168;28;20032;-89
2023/11/25 01:28:44;;;;;;;7.93;2.28;;;5.30;99.90;;;;;;5041276;28;20476;-88
2023/11/25 01:31:10;;;;;;;10.73;2.30;;;5.30;99.90;;;;;;5057981;28;20082;-89
2023/11/25 01:33:40;;;;;;;10.82;2.55;;;5.30;99.90;;;;;;5041294;28;20495;-88
2023/11/25 01:36:09;;;;;;;8.27;1.98;;;5.30;99.90;;;;;;5041454;28;20021;-89
2023/11/25 01:38:38;;;;;;;10.82;2.55;;;5.30;99.90;;;;;;5058291;28;20029;-88
2023/11/25 01:41:05;;;;;;;10.75;2.42;;;5.30;99.90;;;;;;5057683;28;20029;-89
2023/11/25 01:43:33;;;;;;;7.75;2.38;;;5.30;99.90;;;;;;5040835;28;20020;-88
2023/11/25 01:46:02;;;;;;;10.57;2.80;;;5.30;99.90;;;;;;5057411;28;20039;-89
2023/11/25 01:48:31;;;;;;;9.20;2.20;;;5.30;99.90;;;;;;5040983;28;20073;-88
2023/11/25 01:50:58;;;;;;;12.88;2.75;;;5.30;99.90;;;;;;5058233;28;20037;-89
2023/11/25 01:53:25;;;;;;;9.70;2.17;;;5.30;99.90;;;;;;5057246;28;20059;-88
2023/11/25 01:55:52;;;;;;;11.15;2.70;;;5.30;99.90;;;;;;5057897;28;20119;-89
2023/11/25 01:58:21;;;;;;;7.30;2.33;;;5.40;99.90;;;;;;5040594;28;20373;-89
2023/11/25 02:00:49;;;;;;;9.35;2.65;;;5.40;99.90;;;;;;5025210;28;20028;-88
2023/11/25 02:03:16;;;;;;;11.20;2.63;;;5.30;99.90;;;;;;5040983;28;20133;-90
2023/11/25 02:05:44;;;;;;;11.00;1.85;;;5.40;99.90;;;;;;5041248;28;20068;-88
2023/11/25 02:08:10;;;;;;;9.65;2.80;;;5.40;99.90;;;;;;5040466;28;20135;-88
2023/11/25 02:10:36;;;;;;;9.55;2.38;;;5.40;99.90;;;;;;5075264;28;20070;-88
2023/11/25 02:13:02;;;;;;;8.38;2.17;;;5.40;99.90;;;;;;5064600;28;20087;-89
2023/11/25 02:15:32;;;;;;;7.93;2.20;;;5.40;99.90;;;;;;5097816;28;20009;-88
2023/11/25 02:17:57;;;;;;;11.13;2.00;;;5.40;99.90;;;;;;5098318;28;20024;-88
2023/11/25 02:20:38;;;;;;;10.65;2.35;;;5.40;99.90;;;;;;5057074;28;20036;-90
2023/11/25 02:23:04;;;;;;;10.70;2.97;;;5.40;99.90;;;;;;5040993;28;20029;-90
2023/11/25 02:25:30;;;;;;;14.35;2.85;;;5.30;99.90;;;;;;5056866;28;20063;-89
2023/11/25 02:27:56;;;;;;;11.77;2.95;;;5.30;99.90;;;;;;5056812;28;20064;-88
2023/11/25 02:30:26;;;;;;;15.48;2.33;;;5.30;99.90;;;;;;5040098;28;20123;-88
2023/11/25 02:32:53;;;;;;;10.68;2.75;;;5.30;99.90;;;;;;5056623;28;20039;-88
2023/11/25 02:35:20;;;;;;;12.23;3.55;;;5.30;99.90;;;;;;5056702;28;20017;-88
2023/11/25 02:37:46;;;;;;;8.48;1.70;;;5.20;99.90;;;;;;5057367;28;20033;-88
2023/11/25 02:40:18;;;;;;;11.32;2.80;;;5.30;99.90;;;;;;5039973;28;20115;-89
2023/11/25 02:42:47;;;;;;;9.23;2.75;;;5.30;99.90;;;;;;5056658;28;20036;-89
2023/11/25 02:45:22;;;;;;;8.77;2.08;;;5.30;99.90;;;;;;5024436;28;20440;-89
2023/11/25 02:47:49;;;;;;;11.55;2.78;;;5.30;99.90;;;;;;5056544;28;20078;-89
2023/11/25 02:50:16;;;;;;;10.43;2.35;;;5.30;99.90;;;;;;5040035;28;20086;-89
2023/11/25 02:52:43;;;;;;;7.18;2.47;;;5.40;99.90;;;;;;5056556;28;20027;-89
2023/11/25 02:55:12;;;;;;;11.05;2.35;;;5.40;99.90;;;;;;5056779;28;20036;-89
2023/11/25 02:57:43;;;;;;;12.20;3.08;;;5.40;99.90;;;;;;5040206;28;20032;-88
2023/11/25 03:03:00;;;;;;;10.95;2.10;;;5.50;99.90;;;;;;5058489;28;20171;-89
2023/11/25 03:05:28;;;;;;;10.13;2.50;;;5.50;99.90;;;;;;5056438;28;20407;-88
2023/11/25 03:07:56;;;;;;;7.30;2.17;;;5.40;99.90;;;;;;5040125;28;20551;-89
2023/11/25 03:10:25;;;;;;;11.85;2.17;;;5.40;99.90;;;;;;5040761;28;20024;-88
2023/11/25 03:12:51;;;;;;;6.63;1.73;;;5.40;99.90;;;;;;5040073;28;20040;-89
2023/11/25 03:15:17;;;;;;;10.07;2.38;;;5.40;99.90;;;;;;5056050;28;20028;-88
2023/11/25 03:17:42;;;;;;;9.80;1.98;;;5.30;99.90;;;;;;5039711;28;20515;-89
2023/11/25 03:20:08;;;;;;;9.55;2.05;;;5.30;99.90;;;;;;5039978;28;20403;-89
2023/11/25 03:22:34;;;;;;;7.22;1.98;;;5.30;99.90;;;;;;5039692;28;20084;-89
2023/11/25 03:25:01;;;;;;;9.95;2.10;;;5.20;99.90;;;;;;5023546;28;20024;-89
2023/11/25 03:27:28;;;;;;;12.27;2.25;;;5.10;99.90;;;;;;5073976;28;20067;-90
2023/11/25 03:29:54;;;;;;;7.45;2.03;;;5.10;99.90;;;;;;5040013;28;20109;-88
2023/11/25 03:32:20;;;;;;;9.85;1.95;;;5.10;99.90;;;;;;5056353;28;20104;-87
2023/11/25 03:34:46;;;;;;;9.18;2.25;;;5.00;99.90;;;;;;5057312;28;20028;-88
2023/11/25 03:37:11;;;;;;;8.27;1.88;;;5.00;99.90;;;;;;5077962;28;20076;-88
2023/11/25 03:39:37;;;;;;;10.38;2.78;;;5.00;99.90;;;;;;5063208;28;20008;-88
2023/11/25 03:42:06;;;;;;;8.40;2.00;;;5.00;99.90;;;;;;5063670;28;20033;-89
2023/11/25 03:44:34;;;;;;;7.18;1.60;;;5.00;99.90;;;;;;5056264;28;20028;-89
2023/11/25 03:47:00;;;;;;;7.65;1.70;;;5.00;99.90;;;;;;5060786;28;20020;-87
2023/11/25 03:49:26;;;;;;;9.85;2.50;;;5.00;99.90;;;;;;5044294;28;20040;-88
2023/11/25 03:51:52;;;;;;;9.15;2.15;;;4.90;99.90;;;;;;5043036;28;20025;-88
2023/11/25 03:54:17;;;;;;;7.53;1.65;;;4.90;99.90;;;;;;5059965;28;20107;-88
2023/11/25 03:56:43;;;;;;;7.72;2.15;;;5.00;99.90;;;;;;5043162;28;20067;-89
2023/11/25 03:59:09;;;;;;;6.20;1.75;;;5.00;99.90;;;;;;5077230;28;20033;-90
2023/11/25 04:01:35;;;;;;;10.93;2.50;;;4.90;99.90;;;;;;5076527;28;20027;-89
2023/11/25 04:04:04;;;;;;;10.25;2.20;;;4.90;99.90;;;;;;5059737;28;20021;-88
2023/11/25 04:06:32;;;;;;;11.25;2.47;;;4.90;99.90;;;;;;5043101;28;20488;-88
2023/11/25 04:08:58;;;;;;;9.50;2.10;;;4.90;99.90;;;;;;5058645;28;20048;-88
2023/11/25 04:11:24;;;;;;;10.20;2.25;;;4.90;99.90;;;;;;5026695;28;20033;-89
2023/11/25 04:13:50;;;;;;;8.77;2.58;;;4.80;99.90;;;;;;5042713;28;20032;-88
2023/11/25 04:16:15;;;;;;;7.22;1.92;;;4.80;99.90;;;;;;5077331;28;20032;-89
2023/11/25 04:18:42;;;;;;;10.45;2.25;;;4.80;99.90;;;;;;5059112;28;20032;-88
2023/11/25 04:21:07;;;;;;;8.93;2.08;;;4.80;99.90;;;;;;5042358;28;20120;-88
2023/11/25 04:23:33;;;;;;;9.68;1.73;;;4.80;99.90;;;;;;5025642;28;20063;-88
2023/11/25 04:25:58;;;;;;;8.50;1.98;;;4.70;99.90;;;;;;5059167;28;20033;-89
2023/11/25 04:28:24;;;;;;;7.97;1.92;;;4.80;99.90;;;;;;5042312;28;20032;-88
2023/11/25 04:30:50;;;;;;;7.60;1.77;;;4.80;99.90;;;;;;5042298;28;20457;-88
2023/11/25 04:33:16;;;;;;;9.23;1.85;;;4.80;99.90;;;;;;5058980;28;20021;-88
2023/11/25 04:35:41;;;;;;;10.05;2.28;;;4.80;99.90;;;;;;5025720;28;20028;-88
2023/11/25 04:38:08;;;;;;;7.45;2.08;;;4.90;99.90;;;;;;5025476;28;20025;-89
2023/11/25 04:40:33;;;;;;;10.45;2.25;;;4.90;99.90;;;;;;5042391;28;20078;-86
2023/11/25 04:42:59;;;;;;;10.18;2.05;;;5.00;99.90;;;;;;5025862;28;20024;-88
2023/11/25 04:45:25;;;;;;;10.38;2.17;;;5.10;99.90;;;;;;5058953;28;20028;-89
2023/11/25 04:47:51;;;;;;;14.23;2.55;;;5.10;99.90;;;;;;5041762;28;20051;-88
2023/11/25 04:50:18;;;;;;;11.68;2.50;;;5.20;99.90;;;;;;5025887;28;20036;-88
2023/11/25 04:52:44;;;;;;;7.97;2.03;;;5.20;99.90;;;;;;5042127;28;20460;-89
2023/11/25 04:55:14;;;;;;;10.43;2.38;;;5.30;99.90;;;;;;5062073;28;20063;-88
2023/11/25 04:57:40;;;;;;;6.57;1.98;;;5.30;99.90;;;;;;5077085;28;20012;-87
2023/11/25 05:00:11;;;;;;;8.27;1.80;;;5.30;99.90;;;;;;5065042;28;20013;-90
2023/11/25 05:02:37;;;;;;;9.88;2.35;;;5.30;99.90;;;;;;5082384;28;20019;-87
2023/11/25 05:05:04;;;;;;;7.15;2.15;;;5.40;99.90;;;;;;5081975;28;20001;-91
2023/11/25 05:07:30;;;;;;;9.48;2.67;;;5.40;99.90;;;;;;5029212;28;20060;-89
2023/11/25 05:09:56;;;;;;;8.30;2.17;;;5.40;99.90;;;;;;5042307;28;20123;-90
2023/11/25 05:12:23;;;;;;;8.57;2.20;;;5.40;99.90;;;;;;5076555;28;20400;-89
2023/11/25 05:14:52;;;;;;;7.72;2.10;;;5.40;99.90;;;;;;5058190;28;20032;-89
2023/11/25 05:17:18;;;;;;;7.32;2.10;;;5.40;99.90;;;;;;5041451;28;20537;-89
2023/11/25 05:19:44;;;;;;;8.10;1.90;;;5.40;99.90;;;;;;5057885;28;20032;-90
2023/11/25 05:22:09;;;;;;;9.35;1.88;;;5.40;99.90;;;;;;5057873;28;20078;-88
2023/11/25 05:24:35;;;;;;;7.05;1.80;;;5.40;99.90;;;;;;5041161;28;20119;-89
2023/11/25 05:27:02;;;;;;;9.27;2.40;;;5.30;99.90;;;;;;5057830;28;20477;-89
2023/11/25 05:29:28;;;;;;;11.32;2.30;;;5.30;99.90;;;;;;5041394;28;20434;-89
2023/11/25 05:31:54;;;;;;;12.32;2.30;;;5.30;99.90;;;;;;5057904;28;20077;-89
2023/11/25 05:34:20;;;;;;;7.65;2.30;;;5.30;99.90;;;;;;5024869;28;20123;-88
2023/11/25 05:36:46;;;;;;;6.47;2.08;;;5.30;99.90;;;;;;5058128;28;20227;-88
2023/11/25 05:39:13;;;;;;;7.00;1.73;;;5.20;99.90;;;;;;5025020;28;20029;-89
2023/11/25 05:41:43;;;;;;;10.70;2.08;;;5.20;99.90;;;;;;5041324;28;20028;-89
2023/11/25 05:44:10;;;;;;;8.23;2.20;;;5.10;99.90;;;;;;5075907;28;20135;-90
2023/11/25 05:46:36;;;;;;;5.72;1.73;;;5.10;99.90;;;;;;5075519;28;20410;-89
2023/11/25 05:49:03;;;;;;;7.97;1.70;;;5.10;99.90;;;;;;5057425;28;20119;-89
2023/11/25 05:51:42;;;;;;;8.32;1.90;;;5.10;99.90;;;;;;5057298;28;20028;-90
2023/11/25 05:54:08;;;;;;;7.30;1.80;;;5.10;99.90;;;;;;5075019;28;20025;-89
2023/11/25 05:56:34;;;;;;;8.68;1.58;;;5.10;99.90;;;;;;5075163;28;20060;-88
2023/11/25 05:59:01;;;;;;;7.00;1.92;;;5.10;99.90;;;;;;5057429;28;20028;-89
2023/11/25 06:01:27;;;;;;;5.53;1.60;;;5.00;99.90;;;;;;5057926;28;20115;-90
2023/11/25 06:03:53;;;;;;;3.92;1.10;;;5.10;99.90;;;;;;5024045;28;20060;-89
2023/11/25 06:06:21;;;;;;;5.72;1.35;;;5.10;99.90;;;;;;5041217;28;20384;-89
2023/11/25 06:08:47;;;;;;;6.13;1.60;;;5.10;99.90;;;;;;5023716;28;20063;-89
2023/11/25 06:11:26;;;;;;;4.43;1.08;;;5.10;99.90;;;;;;5074893;28;20039;-89
2023/11/25 06:13:56;;;;;;;5.90;0.95;;;5.10;99.90;;;;;;5057742;28;20081;-88
2023/11/25 06:16:23;;;;;;;6.10;1.52;;;5.10;99.90;;;;;;5057405;28;20471;-87
2023/11/25 06:18:49;;;;;;;3.03;0.85;;;5.10;99.90;;;;;;5079491;28;20099;-88
2023/11/25 06:21:18;;;;;;;2.90;0.90;;;5.10;99.90;;;;;;5078471;28;20051;-88
2023/11/25 06:23:43;;;;;;;4.63;1.55;;;5.10;99.90;;;;;;5080585;28;20012;-88
2023/11/25 06:26:12;;;;;;;3.67;1.00;;;5.10;99.90;;;;;;5047598;28;20043;-86
2023/11/25 06:28:42;;;;;;;6.80;1.08;;;5.10;99.90;;;;;;5077984;28;20037;-89
2023/11/25 06:31:15;;;;;;;4.28;1.20;;;5.20;99.90;;;;;;5062711;28;20039;-89
2023/11/25 06:33:41;;;;;;;2.90;0.80;;;5.20;99.90;;;;;;5057523;28;20023;-89
2023/11/25 06:36:08;;;;;;;3.20;1.27;;;5.20;99.90;;;;;;5074812;28;20294;-89
2023/11/25 06:38:34;;;;;;;5.93;1.73;;;5.10;99.90;;;;;;5057106;28;20056;-88
2023/11/25 06:41:03;;;;;;;6.22;1.13;;;5.20;99.90;;;;;;5040425;28;20028;-88
2023/11/25 06:43:29;;;;;;;4.72;1.50;;;5.20;99.90;;;;;;5058816;28;20116;-89
2023/11/25 06:45:55;;;;;;;5.97;1.27;;;5.20;99.90;;;;;;5024024;28;20040;-88
2023/11/25 06:48:23;;;;;;;4.80;1.02;;;5.20;99.90;;;;;;5023985;28;20040;-89
2023/11/25 06:50:49;;;;;;;2.15;0.88;;;5.20;99.90;;;;;;5057444;28;20043;-89
2023/11/25 06:53:15;;;;;;;4.10;0.90;;;5.20;99.90;;;;;;5056723;28;20029;-88
2023/11/25 06:55:41;;;;;;;2.63;0.70;;;5.20;99.90;;;;;;5040305;28;20036;-89
2023/11/25 06:58:11;;;;;;;4.15;0.95;;;5.20;99.90;;;;;;5056868;28;20033;-90
2023/11/25 07:00:43;;;;;;;2.47;0.80;;;5.30;99.90;;;;;;5040329;28;20032;-90
2023/11/25 07:03:09;;;;;;;4.90;0.95;;;5.30;99.90;;;;;;5040363;28;20021;-89
2023/11/25 07:05:37;;;;;;;4.63;0.95;;;5.20;99.90;;;;;;5023697;28;20031;-89
2023/11/25 07:08:02;;;;;;;4.95;1.02;;;5.30;99.90;;;;;;5056289;28;20088;-90
2023/11/25 07:10:34;;;;;;;6.03;1.30;;;5.30;99.90;;;;;;5056540;28;20029;-88
2023/11/25 07:12:59;;;;;;;;;;;5.30;99.90;;;;;;5074672;28;20027;-88
2023/11/25 07:15:25;;;;;;;1.17;0.68;;;5.30;99.90;;;;;;5056687;28;19908;-89
2023/11/25 07:17:51;;;;;;;4.05;0.80;;;5.30;99.90;;;;;;5056852;28;20056;-89
2023/11/25 07:20:18;;;;;;;4.07;1.05;;;5.30;99.90;;;;;;5042461;28;20031;-88
2023/11/25 07:22:44;;;;;;;6.57;1.45;;;5.40;99.90;;;;;;5044560;28;20468;-89
2023/11/25 07:25:14;;;;;;;2.92;0.90;;;5.40;99.90;;;;;;5043703;28;20024;-90
2023/11/25 07:27:41;;;;;;;3.63;1.60;;;5.40;99.90;;;;;;5060548;28;20090;-89
2023/11/25 07:30:08;;;;;;;5.38;1.48;;;5.50;99.90;;;;;;5078201;28;20037;-89
2023/11/25 07:32:34;;;;;;;4.78;1.30;;;5.50;99.90;;;;;;5060070;28;20058;-89
2023/11/25 07:35:00;;;;;;;5.25;1.10;;;5.50;99.90;;;;;;5059889;28;20016;-90
2023/11/25 07:37:27;;;;;;;4.32;0.82;;;5.60;99.90;;;;;;5043883;28;20039;-89
2023/11/25 07:39:53;;;;;;;2.70;0.95;;;5.60;99.90;;;;;;5060670;28;20029;-90
2023/11/25 07:42:19;;;;;;;2.85;0.70;;;5.60;99.90;;;;;;5044738;28;20020;-88
2023/11/25 07:44:44;;;;;;;3.33;1.13;;;5.60;99.90;;;;;;5083053;28;20024;-88
2023/11/25 07:47:15;;;;;;;2.53;0.60;;;5.70;99.90;;;;;;5066642;28;20017;-89
2023/11/25 07:49:41;;;;;;;3.72;1.02;;;5.70;99.90;;;;;;5067370;28;20013;-88
2023/11/25 07:52:07;;;;;;;3.97;0.82;;;5.70;99.90;;;;;;5037636;28;20078;-88
2023/11/25 07:54:33;;;;;;;3.08;0.90;;;5.70;99.90;;;;;;5043918;28;20074;-88
2023/11/25 07:56:58;;;;;;;2.47;0.77;;;5.70;99.90;;;;;;5042889;28;20032;-89
2023/11/25 07:59:25;;;;;;;3.33;1.00;;;5.70;99.90;;;;;;5059431;28;20023;-90
2023/11/25 08:01:53;;;;;;;6.00;0.90;;;5.80;99.90;;;;;;5026849;28;20551;-90
2023/11/25 08:04:19;;;;;;;5.20;0.85;;;5.70;99.90;;;;;;5059268;28;20091;-91
2023/11/25 08:06:45;;;;;;;2.28;0.60;;;5.80;99.90;;;;;;5059454;28;20502;-89
2023/11/25 08:09:12;;;;;;;2.65;0.90;;;5.80;99.90;;;;;;5042786;28;20084;-88
2023/11/25 08:11:37;;;;;;;3.88;0.88;;;5.80;99.90;;;;;;5042899;28;20509;-87
2023/11/25 08:14:03;;;;;;;2.45;0.73;;;5.80;99.90;;;;;;5058437;28;20033;-86
2023/11/25 08:16:29;;;;;;;2.60;0.70;;;5.80;99.90;;;;;;5058832;28;20388;-87
2023/11/25 08:18:55;;;;;;;2.35;0.55;;;5.80;99.90;;;;;;5058864;28;20090;-87
2023/11/25 08:21:22;;;;;;;1.80;0.60;;;5.80;99.90;;;;;;5058573;28;20025;-87
2023/11/25 08:23:48;;;;;;;3.08;0.98;;;5.90;99.90;;;;;;5058256;28;20115;-88
2023/11/25 08:26:18;;;;;;;3.05;0.82;;;5.90;99.90;;;;;;5058838;28;20060;-87
2023/11/25 08:28:44;;;;;;;3.23;0.70;;;5.90;99.90;;;;;;5058915;28;20532;-87
2023/11/25 08:31:10;;;;;;;4.70;0.90;;;5.90;99.90;;;;;;5057939;28;20104;-88
2023/11/25 08:33:36;;;;;;;3.55;0.70;;;5.90;99.90;;;;;;5042498;28;20024;-88
2023/11/25 08:36:02;;;;;;;3.97;1.00;;;5.90;99.90;;;;;;5042310;28;20024;-89
2023/11/25 08:38:27;;;;;;;3.80;0.90;;;6.00;99.90;;;;;;5043226;28;20036;-87
2023/11/25 08:40:53;;;;;;;3.63;0.98;;;6.00;99.90;;;;;;5059410;28;20028;-89
2023/11/25 08:43:21;;;;;;;1.88;0.80;;;6.00;99.90;;;;;;5042345;28;20039;-89
2023/11/25 08:45:48;;;;;;;2.88;0.90;;;6.00;99.90;;;;;;5043469;28;20538;-91
2023/11/25 08:48:14;;;;;;;2.50;0.68;;;6.00;99.90;;;;;;5026317;28;20079;-89
2023/11/25 08:50:40;;;;;;;2.90;0.82;;;6.00;99.90;;;;;;5076443;28;20425;-89
2023/11/25 08:53:07;;;;;;;3.25;0.80;;;6.00;99.90;;;;;;5025516;28;20483;-88
2023/11/25 08:55:33;;;;;;;3.63;0.73;;;6.00;99.90;;;;;;5058417;28;20033;-88
2023/11/25 08:57:59;;;;;;;3.58;0.70;;;6.10;99.90;;;;;;5058379;28;20043;-88
2023/11/25 09:00:29;;;;;;;4.82;0.90;;;6.20;99.90;;;;;;5076342;28;20024;-88
2023/11/25 09:02:57;;;;;;;3.13;0.80;;;6.20;99.90;;;;;;5043445;28;20503;-87
2023/11/25 09:05:22;;;;;;;1.88;0.70;;;6.30;99.90;;;;;;5060629;28;20453;-87
2023/11/25 09:07:50;;;;;;;1.42;0.63;;;6.30;99.90;;;;;;5077019;28;20066;-87
2023/11/25 09:10:17;;;;;;;3.00;0.90;;;6.30;99.90;;;;;;5099166;28;20100;-86
2023/11/25 09:12:45;;;;;;;2.72;0.85;;;6.30;99.90;;;;;;5065598;28;20072;-89
2023/11/25 09:15:13;;;;;;;2.42;0.90;;;6.40;99.90;;;;;;5077531;28;20056;-87
2023/11/25 09:17:40;;;;;;;2.42;1.00;;;6.40;99.90;;;;;;5042667;28;20025;-87
2023/11/25 09:20:12;;;;;;;2.38;0.80;;;6.40;99.90;;;;;;5058690;28;20365;-87
2023/11/25 09:22:39;;;;;;;2.55;1.00;;;6.50;99.90;;;;;;5059293;28;20067;-88
2023/11/25 09:25:06;;;;;;;2.47;0.90;;;6.60;99.90;;;;;;5058313;28;20021;-87
2023/11/25 09:27:31;;;;;;;3.85;1.00;;;6.60;99.90;;;;;;5075451;28;20104;-88
2023/11/25 09:29:58;;;;;;;2.15;0.80;;;6.60;99.90;;;;;;5057248;28;20131;-87
2023/11/25 09:32:27;;;;;;;1.85;0.70;;;6.70;99.90;;;;;;5058205;28;20032;-87
2023/11/25 09:34:53;;;;;;;2.38;0.70;;;6.80;99.90;;;;;;5058485;28;20541;-87
2023/11/25 09:37:19;;;;;;;4.07;1.13;;;6.90;99.90;;;;;;5057720;28;20032;-87
2023/11/25 09:39:45;;;;;;;4.28;1.10;;;6.90;99.90;;;;;;5025710;28;20024;-87
2023/11/25 09:42:11;;;;;;;6.25;1.30;;;6.90;99.90;;;;;;5057130;28;20027;-88
2023/11/25 09:44:39;;;;;;;4.32;1.20;;;6.90;99.90;;;;;;5057895;28;20032;-87
2023/11/25 09:47:05;;;;;;;4.50;1.00;;;6.90;99.90;;;;;;5075627;28;20030;-87
2023/11/25 09:49:31;;;;;;;2.90;1.13;;;6.90;99.90;;;;;;5075241;28;20349;-87
2023/11/25 09:52:05;;;;;;;4.07;0.88;;;6.90;99.90;;;;;;5040675;28;20033;-87
2023/11/25 09:54:31;;;;;;;4.32;1.05;;;6.90;99.90;;;;;;5075652;28;20518;-89
2023/11/25 09:56:58;;;;;;;2.72;1.10;;;6.90;99.90;;;;;;5076201;28;20047;-90
2023/11/25 09:59:26;;;;;;;2.67;1.00;;;6.90;99.90;;;;;;5058000;28;20037;-88
2023/11/25 10:01:52;;;;;;;4.47;1.25;;;7.00;99.90;;;;;;5057656;28;20396;-88
2023/11/25 10:04:20;;;;;;;4.55;0.73;;;7.00;99.90;;;;;;5024415;28;20150;-87
2023/11/25 10:06:51;;;;;;;2.35;0.88;;;7.10;99.90;;;;;;5040455;28;20060;-87
2023/11/25 10:09:16;;;;;;;2.13;0.93;;;7.10;99.90;;;;;;5056929;28;20048;-88
2023/11/25 10:11:42;;;;;;;3.03;0.75;;;7.20;99.90;;;;;;5057637;28;20028;-87
2023/11/25 10:14:17;;;;;;;4.55;1.13;;;7.20;99.90;;;;;;5057823;28;20039;-88
2023/11/25 10:16:44;;;;;;;2.50;0.70;;;7.20;99.90;;;;;;5057821;28;20067;-88
2023/11/25 10:19:23;;;;;;;3.80;0.90;;;7.30;99.90;;;;;;5057469;28;20391;-87
2023/11/25 10:21:50;;;;;;;3.47;0.70;;;7.40;99.90;;;;;;5057039;28;20426;-87
2023/11/25 10:24:17;;;;;;;3.97;1.25;;;7.40;99.90;;;;;;5057446;28;20031;-84
2023/11/25 10:26:46;;;;;;;9.07;1.23;;;7.50;99.90;;;;;;5041687;28;20115;-89
2023/11/25 10:29:14;;;;;;;5.15;1.40;;;7.40;99.90;;;;;;5078044;28;20037;-87
2023/11/25 10:31:44;;;;;;;5.03;1.10;;;7.50;99.90;;;;;;5053841;28;20021;-89
2023/11/25 10:34:13;;;;;;;3.80;1.30;;;7.40;99.90;;;;;;5098220;28;20019;-86
2023/11/25 10:36:39;;;;;;;9.75;1.85;;;7.40;99.90;;;;;;5098030;28;20029;-87
2023/11/25 10:39:08;;;;;;;8.18;1.63;;;7.50;99.90;;;;;;5097886;28;20005;-87
2023/11/25 10:41:37;;;;;;;5.43;1.35;;;7.50;99.90;;;;;;5042925;28;20480;-86
2023/11/25 10:44:04;;;;;;;5.60;1.40;;;7.60;99.90;;;;;;5042852;28;20021;-87
2023/11/25 10:46:38;;;;;;;5.15;1.33;;;7.60;99.90;;;;;;5057357;28;20439;-87
2023/11/25 10:49:07;;;;;;;7.97;1.70;;;7.60;99.90;;;;;;5074947;28;20033;-87
2023/11/25 10:51:33;;;;;;;5.00;1.70;;;7.60;99.90;;;;;;5057227;28;20020;-86
2023/11/25 10:53:59;;;;;;;6.35;1.95;;;7.70;99.90;;;;;;5057883;28;20372;-87
2023/11/25 10:56:27;;;;;;;5.43;1.60;;;7.80;99.90;;;;;;5079022;28;20029;-88
2023/11/25 10:58:53;;;;;;;7.88;1.58;;;7.80;99.90;;;;;;5061797;28;20021;-87
2023/11/25 11:01:21;;;;;;;11.02;2.50;;;7.90;99.90;;;;;;5045035;28;20481;-87
2023/11/25 11:04:13;;;;;;;8.27;1.83;;;8.00;99.90;;;;;;5061319;28;20375;-88
2023/11/25 11:06:53;;;;;;;7.88;1.70;;;8.10;99.90;;;;;;5078456;28;20043;-87
2023/11/25 11:09:20;;;;;;;9.02;2.15;;;8.20;99.90;;;;;;5060555;28;20043;-87
2023/11/25 11:11:56;;;;;;;6.38;1.65;;;8.20;99.90;;;;;;5060246;28;20013;-87
2023/11/25 11:14:23;;;;;;;5.18;1.42;;;8.20;99.90;;;;;;5077810;28;20399;-86
2023/11/25 11:17:13;;;;;;;6.03;1.90;;;8.30;99.90;;;;;;5078971;28;20021;-87
2023/11/25 11:19:42;;;;;;;7.03;1.90;;;8.20;99.90;;;;;;5061343;28;20084;-87
2023/11/25 11:22:11;;;;;;;9.35;2.25;;;8.30;99.90;;;;;;5044318;28;20391;-88
2023/11/25 11:25:07;;;;;;;7.38;1.88;;;8.20;99.90;;;;;;5078787;28;20036;-88
2023/11/25 11:27:55;;;;;;;9.75;2.47;;;8.20;99.90;;;;;;5033837;28;20114;-87
2023/11/25 11:30:40;;;;;;;7.68;1.55;;;8.30;99.90;;;;;;5078174;28;20025;-87
2023/11/25 11:33:08;;;;;;;6.05;1.58;;;8.30;99.90;;;;;;5060173;28;20021;-86
2023/11/25 11:35:38;;;;;;;6.57;1.60;;;8.20;99.90;;;;;;5077608;28;20089;-87
2023/11/25 11:38:23;;;;;;;7.97;1.38;;;8.20;99.90;;;;;;5059813;28;20028;-87
2023/11/25 11:40:52;;;;;;;6.07;1.40;;;8.30;99.90;;;;;;5058993;28;20031;-86
2023/11/25 11:43:18;;;;;;;6.85;1.60;;;8.30;99.90;;;;;;5076431;28;20021;-86
2023/11/25 11:45:44;;;;;;;10.18;1.77;;;8.30;99.90;;;;;;5058569;28;20388;-85
2023/11/25 11:48:13;;;;;;;3.85;1.23;;;8.30;99.90;;;;;;5042466;28;20032;-85
2023/11/25 11:50:42;;;;;;;7.15;1.77;;;8.30;99.90;;;;;;5058638;28;20078;-85
2023/11/25 11:53:12;;;;;;;5.50;1.50;;;8.30;99.90;;;;;;5042723;28;20119;-85
2023/11/25 11:55:53;;;;;;;5.03;1.60;;;8.30;99.90;;;;;;5061584;28;20033;-84
2023/11/25 11:58:27;;;;;;;6.13;1.92;;;8.30;99.90;;;;;;5092307;28;20016;-85
2023/11/25 12:00:54;;;;;;;8.95;2.05;;;8.40;99.90;;;;;;5083156;28;20024;-84
2023/11/25 12:03:20;;;;;;;8.07;1.73;;;8.40;99.90;;;;;;5081731;28;20029;-85
2023/11/25 12:05:46;;;;;;;10.07;2.10;;;8.40;99.90;;;;;;5079305;28;20541;-84
2023/11/25 12:08:12;;;;;;;9.25;1.70;;;8.50;99.90;;;;;;5062604;28;20060;-85
2023/11/25 12:10:38;;;;;;;7.20;1.70;;;8.50;99.90;;;;;;5077006;28;20063;-85
2023/11/25 12:13:04;;;;;;;6.35;1.73;;;8.60;99.90;;;;;;5076321;28;20062;-84
2023/11/25 12:15:31;;;;;;;9.55;1.98;;;8.60;99.90;;;;;;5058591;28;20360;-84
2023/11/25 12:17:57;;;;;;;7.93;2.20;;;8.70;99.90;;;;;;5058346;28;20035;-85
2023/11/25 12:20:26;;;;;;;9.10;2.28;;;8.70;99.90;;;;;;5058287;28;20123;-86
2023/11/25 12:22:52;;;;;;;11.57;2.60;;;8.70;99.90;;;;;;5058776;28;20461;-85
2023/11/25 12:25:18;;;;;;;9.45;2.25;;;8.70;99.90;;;;;;5057916;28;20048;-85
2023/11/25 12:28:09;;;;;;;11.27;2.55;;;8.80;99.90;;;;;;5041277;28;20093;-85
2023/11/25 12:30:39;;;;;;;8.60;2.17;;;8.80;99.90;;;;;;5076062;28;20028;-87
2023/11/25 12:33:06;;;;;;;13.63;2.67;;;8.80;99.90;;;;;;5076305;28;20017;-86
2023/11/25 12:35:36;;;;;;;8.38;1.90;;;8.90;99.90;;;;;;5076014;28;20353;-84
2023/11/25 12:38:05;;;;;;;12.00;2.45;;;8.90;99.90;;;;;;5075872;28;20456;-85
2023/11/25 12:40:31;;;;;;;11.13;2.40;;;8.90;99.90;;;;;;5075898;28;20021;-85
2023/11/25 12:42:57;;;;;;;15.07;2.17;;;8.90;99.90;;;;;;5057872;28;20033;-84
2023/11/25 12:45:38;;;;;;;5.68;1.77;;;8.90;99.90;;;;;;5057814;28;20388;-86
2023/11/25 12:48:05;;;;;;;9.63;2.10;;;9.00;99.90;;;;;;5057331;28;20025;-85
2023/11/25 12:50:33;;;;;;;9.13;2.13;;;9.00;99.90;;;;;;5041363;28;20036;-85
2023/11/25 12:53:07;;;;;;;8.60;2.00;;;9.10;99.90;;;;;;5057939;28;20361;-87
2023/11/25 12:55:48;;;;;;;8.55;2.10;;;9.10;99.90;;;;;;5026346;28;20031;-86
2023/11/25 12:58:15;;;;;;;7.78;2.40;;;9.10;99.90;;;;;;5027413;28;20028;-87
2023/11/25 13:00:52;;;;;;;10.40;2.63;;;9.10;99.90;;;;;;5058156;28;20021;-87